createdAt,value
2018-06-25T00:01:49.204Z,62.23
2018-06-25T00:04:18.820Z,61.79
2018-06-25T00:06:48.664Z,62.29
2018-06-25T00:09:18.342Z,62.62
2018-06-25T00:11:47.995Z,62.49
2018-06-25T00:14:17.693Z,62.63
2018-06-25T00:16:47.284Z,62.75
2018-06-25T00:19:16.874Z,62.18
2018-06-25T00:21:46.500Z,62.91
2018-06-25T00:24:16.830Z,62.55
2018-06-25T00:26:46.497Z,62.71
2018-06-25T00:29:16.159Z,62.94
2018-06-25T00:37:29.619Z,63.23
2018-06-25T00:39:59.276Z,62.63
2018-06-25T00:42:30.280Z,61.87
2018-06-25T00:44:59.958Z,62.70
2018-06-25T00:47:29.548Z,63.50
2018-06-25T00:49:59.168Z,64.16
2018-06-25T00:52:28.763Z,63.21
2018-06-25T00:54:58.621Z,63.56
2018-06-25T00:57:28.444Z,63.36
2018-06-25T00:59:58.655Z,63.21
2018-06-25T01:02:28.280Z,62.68
2018-06-25T01:04:57.996Z,62.79
2018-06-25T01:07:28.828Z,62.92
2018-06-25T01:10:01.170Z,63.54
2018-06-25T01:15:08.463Z,63.36
2018-06-25T01:17:38.735Z,64.11
2018-06-25T01:20:08.371Z,64.25
2018-06-25T01:22:38.150Z,63.82
2018-06-25T01:25:07.836Z,63.82
2018-06-25T01:30:13.316Z,63.05
2018-06-25T01:32:44.824Z,62.63
2018-06-25T01:35:14.928Z,62.85
2018-06-25T01:37:44.598Z,63.22
2018-06-25T01:40:14.613Z,62.90
2018-06-25T01:42:44.569Z,62.80
2018-06-25T01:45:21.187Z,62.61
2018-06-25T01:47:51.749Z,62.15
2018-06-25T01:50:22.389Z,63.90
2018-06-25T01:52:53.838Z,63.49
2018-06-25T01:55:23.990Z,63.27
2018-06-25T01:57:55.703Z,62.39
2018-06-25T02:00:26.000Z,62.95
2018-06-25T02:02:56.433Z,63.44
2018-06-25T02:05:26.654Z,63.34
2018-06-25T02:07:58.008Z,64.13
2018-06-25T02:10:29.534Z,63.44
2018-06-25T02:12:59.278Z,64.05
2018-06-25T02:15:30.113Z,63.05
2018-06-25T02:18:00.639Z,64.01
2018-06-25T02:20:30.872Z,62.14
2018-06-25T02:23:01.810Z,62.28
2018-06-25T02:25:32.307Z,61.57
2018-06-25T02:28:02.789Z,61.92
2018-06-25T02:30:54.482Z,63.02
2018-06-25T02:33:25.092Z,63.66
2018-06-25T02:35:55.445Z,63.86
2018-06-25T02:38:25.591Z,63.83
2018-06-25T02:40:55.518Z,63.59
2018-06-25T02:43:26.023Z,63.84
2018-06-25T02:45:55.859Z,63.66
2018-06-25T02:48:27.310Z,64.56
2018-06-25T02:50:57.113Z,63.80
2018-06-25T02:53:27.029Z,64.36
2018-06-25T02:58:32.277Z,64.70
2018-06-25T03:01:02.394Z,64.24
2018-06-25T03:03:35.903Z,64.58
2018-06-25T03:06:06.147Z,64.00
2018-06-25T03:08:40.254Z,63.61
2018-06-25T03:11:10.435Z,64.02
2018-06-25T03:13:40.248Z,64.86
2018-06-25T03:16:10.568Z,65.43
2018-06-25T03:18:41.084Z,64.56
2018-06-25T03:21:17.228Z,65.24
2018-06-25T03:23:46.834Z,65.24
2018-06-25T03:26:16.452Z,64.98
2018-06-25T03:28:49.311Z,64.26
2018-06-25T03:31:18.920Z,64.43
2018-06-25T03:36:28.887Z,64.04
2018-06-25T03:38:58.549Z,63.79
2018-06-25T03:41:29.777Z,63.81
2018-06-25T03:43:59.707Z,63.53
2018-06-25T03:46:29.499Z,63.40
2018-06-25T03:48:59.259Z,63.37
2018-06-25T03:51:28.922Z,63.57
2018-06-25T03:56:35.622Z,64.31
2018-06-25T03:59:05.494Z,65.52
2018-06-25T04:01:39.359Z,64.49
2018-06-25T04:04:09.064Z,64.56
2018-06-25T04:06:38.722Z,64.17
2018-06-25T04:09:11.028Z,64.68
2018-06-25T04:11:42.709Z,64.81
2018-06-25T04:14:13.149Z,64.65
2018-06-25T04:16:43.480Z,63.98
2018-06-25T04:19:13.672Z,64.26
2018-06-25T04:21:44.895Z,64.35
2018-06-25T04:24:14.505Z,64.41
2018-06-25T04:26:44.147Z,63.87
2018-06-25T04:29:13.819Z,64.26
2018-06-25T04:31:43.427Z,64.26
2018-06-25T04:34:13.004Z,64.97
2018-06-25T04:36:42.620Z,65.37
2018-06-25T04:39:12.205Z,64.93
2018-06-25T04:41:41.821Z,64.67
2018-06-25T04:44:11.424Z,65.25
2018-06-25T04:46:41.710Z,65.31
2018-06-25T04:49:11.292Z,65.12
2018-06-25T04:51:40.906Z,64.25
2018-06-25T04:54:10.563Z,64.22
2018-06-25T04:56:40.442Z,63.78
2018-06-25T04:59:10.131Z,63.67
2018-06-25T05:01:39.723Z,63.70
2018-06-25T05:04:09.345Z,63.72
2018-06-25T05:06:38.980Z,62.94
2018-06-25T05:09:09.497Z,63.68
2018-06-25T05:14:14.512Z,64.10
2018-06-25T05:16:44.232Z,63.86
2018-06-25T05:19:13.888Z,63.90
2018-06-25T05:21:43.524Z,63.43
2018-06-25T05:24:13.385Z,63.89
2018-06-25T05:26:43.068Z,64.00
2018-06-25T05:29:12.751Z,63.31
2018-06-25T05:31:42.345Z,64.82
2018-06-25T05:34:11.989Z,64.62
2018-06-25T05:36:41.551Z,64.60
2018-06-25T05:39:12.261Z,64.97
2018-06-25T05:41:42.580Z,64.08
2018-06-25T05:44:12.644Z,63.85
2018-06-25T05:46:42.216Z,63.31
2018-06-25T05:49:12.014Z,62.75
2018-06-25T05:51:41.689Z,63.80
2018-06-25T05:54:11.293Z,63.13
2018-06-25T05:56:40.916Z,63.34
2018-06-25T05:59:10.637Z,63.64
2018-06-25T06:01:40.384Z,63.84
2018-06-25T06:04:10.011Z,63.16
2018-06-25T06:06:39.658Z,63.38
2018-06-25T06:09:10.032Z,63.20
2018-06-25T06:11:39.689Z,63.20
2018-06-25T06:14:09.328Z,62.87
2018-06-25T06:16:38.945Z,62.58
2018-06-25T06:19:08.648Z,61.52
2018-06-25T06:21:38.297Z,60.73
2018-06-25T06:24:08.288Z,60.74
2018-06-25T06:26:37.992Z,60.78
2018-06-25T06:29:07.633Z,61.07
2018-06-25T06:31:37.295Z,62.01
2018-06-25T06:34:06.957Z,62.25
2018-06-25T06:36:36.681Z,62.51
2018-06-25T06:39:09.780Z,62.35
2018-06-25T06:41:39.491Z,62.76
2018-06-25T06:44:09.269Z,62.86
2018-06-25T06:46:38.912Z,62.30
2018-06-25T06:49:08.590Z,61.69
2018-06-25T06:51:38.297Z,62.71
2018-06-25T06:54:08.185Z,62.26
2018-06-25T06:56:37.863Z,61.71
2018-06-25T06:59:07.677Z,60.88
2018-06-25T07:01:37.440Z,61.34
2018-06-25T07:04:07.333Z,61.50
2018-06-25T07:06:37.000Z,60.38
2018-06-25T07:09:09.294Z,61.90
2018-06-25T07:11:38.934Z,62.31
2018-06-25T07:14:09.302Z,61.33
2018-06-25T07:16:40.045Z,60.96
2018-06-25T07:19:10.010Z,60.32
2018-06-25T07:21:40.560Z,60.13
2018-06-25T07:24:10.313Z,59.92
2018-06-25T07:26:40.223Z,59.49
2018-06-25T07:29:09.909Z,58.98
2018-06-25T07:31:39.644Z,58.68
2018-06-25T07:34:09.400Z,58.78
2018-06-25T07:36:39.158Z,58.58
2018-06-25T07:39:09.636Z,57.99
2018-06-25T07:41:39.349Z,58.17
2018-06-25T07:44:09.009Z,58.30
2018-06-25T07:46:38.737Z,55.62
2018-06-25T07:49:08.500Z,56.61
2018-06-25T07:51:38.132Z,57.84
2018-06-25T07:54:07.850Z,56.94
2018-06-25T07:56:37.520Z,56.40
2018-06-25T07:59:07.241Z,57.37
2018-06-25T08:01:37.004Z,59.35
2018-06-25T08:04:06.776Z,57.10
2018-06-25T08:06:36.376Z,54.61
2018-06-25T08:09:08.729Z,55.94
2018-06-25T08:11:38.486Z,51.79
2018-06-25T08:14:08.258Z,57.34
2018-06-25T08:16:39.461Z,56.64
2018-06-25T08:19:08.990Z,54.95
2018-06-25T08:21:38.651Z,55.13
2018-06-25T08:24:10.207Z,52.02
2018-06-25T08:26:39.952Z,51.41
2018-06-25T08:29:09.656Z,52.09
2018-06-25T08:31:39.231Z,55.75
2018-06-25T08:34:08.966Z,55.27
2018-06-25T08:39:13.752Z,52.76
2018-06-25T08:41:43.363Z,54.77
2018-06-25T08:44:12.963Z,53.72
2018-06-25T08:46:42.627Z,53.61
2018-06-25T08:49:12.499Z,52.72
2018-06-25T08:51:42.380Z,52.30
2018-06-25T08:54:12.031Z,52.03
2018-06-25T08:56:41.708Z,50.96
2018-06-25T08:59:11.335Z,53.39
2018-06-25T09:01:40.987Z,51.95
2018-06-25T09:04:10.596Z,51.30
2018-06-25T09:06:40.215Z,51.18
2018-06-25T09:09:11.376Z,49.08
2018-06-25T09:11:41.066Z,49.89
2018-06-25T09:14:10.791Z,49.73
2018-06-25T09:16:40.515Z,51.01
2018-06-25T09:19:10.159Z,51.37
2018-06-25T09:21:39.961Z,50.36
2018-06-25T09:24:09.625Z,50.30
2018-06-25T09:26:40.743Z,51.10
2018-06-25T09:29:11.555Z,52.60
2018-06-25T09:31:41.252Z,48.51
2018-06-25T09:34:16.188Z,49.53
2018-06-25T09:36:45.845Z,51.30
2018-06-25T09:39:15.585Z,51.90
2018-06-25T09:41:45.603Z,51.99
2018-06-25T09:44:15.072Z,52.85
2018-06-25T09:46:45.072Z,53.55
2018-06-25T09:49:14.644Z,51.51
2018-06-25T09:51:44.294Z,51.39
2018-06-25T09:54:14.307Z,50.53
2018-06-25T09:56:44.050Z,46.00
2018-06-25T09:59:13.768Z,49.38
2018-06-25T10:01:43.433Z,48.48
2018-06-25T10:04:13.112Z,50.14
2018-06-25T10:06:42.944Z,49.52
2018-06-25T10:09:13.247Z,49.23
2018-06-25T10:11:43.512Z,50.25
2018-06-25T10:14:13.236Z,50.60
2018-06-25T10:16:42.907Z,50.06
2018-06-25T10:19:12.581Z,50.46
2018-06-25T10:21:42.356Z,49.42
2018-06-25T10:24:12.207Z,49.50
2018-06-25T10:26:41.896Z,49.74
2018-06-25T10:29:11.552Z,49.14
2018-06-25T10:31:41.273Z,50.46
2018-06-25T10:34:10.989Z,49.90
2018-06-25T10:36:40.684Z,49.44
2018-06-25T10:39:11.067Z,49.09
2018-06-25T10:41:41.032Z,48.47
2018-06-25T10:44:10.775Z,50.39
2018-06-25T10:46:40.684Z,50.78
2018-06-25T10:49:10.509Z,49.93
2018-06-25T10:51:40.303Z,49.92
2018-06-25T10:54:09.894Z,51.02
2018-06-25T11:08:10.555Z,49.25
2018-06-25T11:13:41.596Z,49.46
2018-06-25T11:16:19.974Z,49.10
2018-06-25T11:19:03.996Z,48.97
2018-06-25T11:24:28.692Z,49.89
2018-06-25T11:27:18.258Z,49.39
2018-06-25T11:30:00.316Z,49.39
2018-06-25T11:38:15.028Z,49.27
2018-06-25T11:41:00.171Z,48.22
2018-06-25T11:49:17.730Z,47.99
2018-06-25T11:55:00.032Z,49.10
2018-06-25T11:57:38.711Z,50.10
2018-06-25T12:00:21.505Z,48.74
2018-06-25T12:03:05.227Z,46.85
2018-06-25T12:05:40.352Z,47.78
2018-06-25T12:08:13.518Z,46.94
2018-06-25T12:10:46.285Z,47.55
2018-06-25T12:13:18.284Z,48.65
2018-06-25T12:15:50.660Z,48.05
2018-06-25T12:18:22.772Z,48.12
2018-06-25T12:20:54.764Z,48.13
2018-06-25T12:23:27.465Z,50.14
2018-06-25T12:26:00.249Z,52.09
2018-06-25T12:28:33.067Z,50.91
2018-06-25T12:31:06.157Z,50.92
2018-06-25T12:33:39.176Z,52.16
2018-06-25T12:36:12.984Z,53.48
2018-06-25T12:38:44.973Z,52.39
2018-06-25T12:41:16.922Z,52.66
2018-06-25T12:43:50.106Z,51.64
2018-06-25T12:46:22.724Z,51.54
2018-06-25T12:48:55.602Z,51.68
2018-06-25T12:51:27.518Z,52.34
2018-06-25T12:54:02.473Z,51.14
2018-06-25T12:56:34.599Z,52.35
2018-06-25T12:59:07.373Z,52.64
2018-06-25T13:01:39.728Z,51.27
2018-06-25T13:04:12.833Z,51.33
2018-06-25T13:06:45.452Z,50.91
2018-06-25T13:09:17.184Z,51.77
2018-06-25T13:11:49.533Z,50.15
2018-06-25T13:14:23.389Z,51.97
2018-06-25T13:16:56.435Z,50.87
2018-06-25T13:22:00.294Z,50.75
2018-06-25T13:24:32.645Z,52.85
2018-06-25T13:27:04.532Z,50.97
2018-06-25T13:29:36.941Z,49.21
2018-06-25T13:32:08.683Z,45.74
2018-06-25T13:34:41.003Z,45.63
2018-06-25T13:37:13.035Z,42.17
2018-06-25T13:39:45.152Z,43.43
2018-06-25T13:42:18.345Z,44.13
2018-06-25T13:44:50.295Z,45.73
2018-06-25T13:47:23.285Z,46.55
2018-06-25T13:49:55.379Z,47.57
2018-06-25T13:52:30.202Z,50.81
2018-06-25T13:55:02.362Z,54.50
2018-06-25T13:57:35.831Z,54.36
2018-06-25T14:00:08.745Z,56.42
2018-06-25T14:02:40.905Z,56.11
2018-06-25T14:05:12.546Z,57.14
2018-06-25T14:07:44.423Z,56.71
2018-06-25T14:10:16.763Z,56.16
2018-06-25T14:12:48.793Z,56.39
2018-06-25T14:15:20.472Z,54.55
2018-06-25T14:17:52.100Z,54.85
2018-06-25T14:20:23.807Z,53.81
2018-06-25T14:22:55.391Z,51.80
2018-06-25T14:25:27.580Z,52.76
2018-06-25T14:28:06.665Z,49.95
2018-06-25T14:30:45.612Z,51.37
2018-06-25T14:33:19.549Z,52.35
2018-06-25T14:35:51.433Z,46.06
2018-06-25T14:38:22.914Z,47.15
2018-06-25T14:40:57.300Z,46.45
2018-06-25T14:43:29.137Z,47.61
2018-06-25T14:46:01.293Z,48.38
2018-06-25T14:48:34.189Z,49.43
2018-06-25T14:51:06.724Z,47.81
2018-06-25T14:53:39.418Z,46.70
2018-06-25T14:56:11.206Z,47.03
2018-06-25T14:58:43.393Z,46.71
2018-06-25T15:01:16.105Z,45.28
2018-06-25T15:03:49.012Z,46.67
2018-06-25T15:06:22.711Z,44.25
2018-06-25T15:08:54.233Z,42.67
2018-06-25T15:11:25.940Z,40.76
2018-06-25T15:13:57.144Z,40.28
2018-06-25T15:16:28.461Z,41.24
2018-06-25T15:19:00.936Z,42.55
2018-06-25T15:21:42.508Z,42.61
2018-06-25T15:24:31.133Z,41.41
2018-06-25T15:27:16.013Z,40.48
2018-06-25T15:29:53.520Z,41.45
2018-06-25T15:32:34.534Z,42.60
2018-06-25T15:35:08.178Z,43.19
2018-06-25T15:37:40.433Z,42.69
2018-06-25T15:40:12.536Z,43.27
2018-06-25T15:42:44.655Z,45.50
2018-06-25T15:45:17.070Z,46.00
2018-06-25T15:47:49.387Z,46.07
2018-06-25T15:50:21.471Z,44.86
2018-06-25T15:52:53.578Z,42.45
2018-06-25T15:55:25.296Z,40.89
2018-06-25T15:57:58.157Z,40.89
2018-06-25T16:00:30.243Z,40.88
2018-06-25T16:03:02.647Z,41.22
2018-06-25T16:05:34.624Z,39.03
2018-06-25T16:08:06.855Z,40.46
2018-06-25T16:10:39.863Z,39.70
2018-06-25T16:13:12.100Z,39.39
2018-06-25T16:15:44.570Z,39.44
2018-06-25T16:18:18.803Z,39.13
2018-06-25T16:20:52.276Z,39.53
2018-06-25T16:23:26.095Z,38.30
2018-06-25T16:26:05.269Z,37.06
2018-06-25T16:28:42.766Z,34.81
2018-06-25T16:31:18.892Z,35.10
2018-06-25T16:33:51.989Z,35.59
2018-06-25T16:36:27.502Z,35.46
2018-06-25T16:39:09.623Z,36.75
2018-06-25T16:41:46.399Z,37.88
2018-06-25T16:44:22.320Z,39.18
2018-06-25T16:46:57.096Z,39.38
2018-06-25T16:52:13.487Z,42.51
2018-06-25T16:54:54.707Z,41.05
2018-06-25T16:57:38.342Z,42.86
2018-06-25T17:00:15.480Z,43.57
2018-06-25T17:02:49.785Z,45.09
2018-06-25T17:05:29.670Z,43.87
2018-06-25T17:10:43.833Z,45.46
2018-06-25T17:13:23.113Z,46.50
2018-06-25T17:15:58.449Z,46.04
2018-06-25T17:18:46.146Z,47.18
2018-06-25T17:21:19.355Z,46.51
2018-06-25T17:23:52.864Z,47.52
2018-06-25T17:26:24.985Z,46.48
2018-06-25T17:28:58.338Z,46.25
2018-06-25T17:31:31.164Z,47.49
2018-06-25T17:34:03.768Z,46.91
2018-06-25T17:36:37.301Z,47.28
2018-06-25T17:39:10.688Z,47.70
2018-06-25T17:41:47.142Z,45.69
2018-06-25T17:44:25.430Z,44.68
2018-06-25T17:46:58.290Z,46.49
2018-06-25T17:49:31.611Z,46.99
2018-06-25T17:52:05.126Z,47.34
2018-06-25T17:54:42.013Z,49.00
2018-06-25T17:57:23.115Z,49.10
2018-06-25T18:00:02.211Z,49.87
2018-06-25T18:02:41.505Z,49.11
2018-06-25T18:05:16.903Z,50.36
2018-06-25T18:07:59.213Z,49.95
2018-06-25T18:10:32.388Z,49.13
2018-06-25T18:13:09.854Z,48.32
2018-06-25T18:15:43.834Z,49.53
2018-06-25T18:18:23.470Z,49.53
2018-06-25T18:20:56.819Z,50.54
2018-06-25T18:23:35.899Z,51.12
2018-06-25T18:26:17.768Z,52.34
2018-06-25T18:28:58.000Z,52.28
2018-06-25T18:31:35.675Z,53.21
2018-06-25T18:37:00.108Z,53.23
2018-06-25T18:39:38.238Z,53.55
2018-06-25T18:45:13.584Z,52.84
2018-06-25T18:47:46.405Z,52.78
2018-06-25T18:50:19.471Z,53.15
2018-06-25T18:52:55.627Z,53.71
2018-06-25T18:55:30.345Z,52.45
2018-06-25T18:58:04.020Z,52.92
2018-06-25T19:00:40.667Z,52.62
2018-06-25T19:03:14.093Z,52.57
2018-06-25T19:05:47.653Z,53.12
2018-06-25T19:08:24.708Z,53.72
2018-06-25T19:11:04.405Z,54.18
2018-06-25T19:13:38.218Z,54.41
2018-06-25T19:16:16.598Z,53.61
2018-06-25T19:18:52.581Z,53.97
2018-06-25T19:21:25.701Z,55.07
2018-06-25T19:24:06.605Z,55.42
2018-06-25T19:26:45.797Z,55.64
2018-06-25T19:29:29.836Z,55.67
2018-06-25T19:32:07.767Z,55.24
2018-06-25T19:34:42.238Z,55.06
2018-06-25T19:37:19.718Z,55.52
2018-06-25T19:42:34.946Z,55.28
2018-06-25T19:45:13.279Z,56.34
2018-06-25T19:47:54.289Z,56.87
2018-06-25T19:50:28.693Z,56.77
2018-06-25T19:53:05.780Z,57.02
2018-06-25T19:55:38.283Z,56.51
2018-06-25T19:58:10.440Z,56.85
2018-06-25T20:00:45.316Z,56.85
2018-06-25T20:03:19.405Z,57.15
2018-06-25T20:05:53.883Z,57.14
2018-06-25T20:08:31.089Z,57.94
2018-06-25T20:11:05.226Z,57.57
2018-06-25T20:13:44.481Z,58.01
2018-06-25T20:16:23.192Z,57.79
2018-06-25T20:19:01.719Z,57.35
2018-06-25T20:21:37.377Z,57.56
2018-06-25T20:24:10.554Z,57.81
2018-06-25T20:26:42.992Z,57.28
2018-06-25T20:29:14.796Z,57.19
2018-06-25T20:31:47.209Z,57.83
2018-06-25T20:34:20.669Z,57.05
2018-06-25T20:36:52.573Z,57.69
2018-06-25T20:39:24.789Z,56.71
2018-06-25T20:42:14.325Z,57.38
2018-06-25T20:44:48.235Z,56.74
2018-06-25T20:47:21.421Z,57.23
2018-06-25T20:49:53.486Z,57.66
2018-06-25T20:52:25.786Z,57.77
2018-06-25T20:54:57.564Z,57.00
2018-06-25T20:57:30.910Z,57.10
2018-06-25T21:00:05.157Z,56.93
2018-06-25T21:02:39.574Z,58.19
2018-06-25T21:05:11.623Z,59.90
2018-06-25T21:07:45.117Z,59.63
2018-06-25T21:10:21.149Z,59.36
2018-06-25T21:12:55.869Z,59.89
2018-06-25T21:15:33.032Z,59.73
2018-06-25T21:18:06.956Z,59.30
2018-06-25T21:20:40.382Z,58.73
2018-06-25T21:23:20.561Z,59.64
2018-06-25T21:26:00.095Z,59.33
2018-06-25T21:28:35.259Z,58.51
2018-06-25T21:31:14.012Z,58.89
2018-06-25T21:33:51.652Z,59.42
2018-06-25T21:36:25.918Z,59.40
2018-06-25T21:39:05.689Z,59.01
2018-06-25T21:44:20.133Z,59.80
2018-06-25T21:46:53.517Z,59.58
2018-06-25T21:49:27.596Z,59.60
2018-06-25T21:52:07.604Z,59.59
2018-06-25T21:54:40.037Z,58.65
2018-06-25T21:57:14.196Z,58.59
2018-06-25T21:59:48.113Z,59.42
2018-06-25T22:02:29.990Z,59.69
2018-06-25T22:05:08.198Z,59.51
2018-06-25T22:07:41.346Z,57.99
2018-06-25T22:10:16.427Z,58.28
2018-06-25T22:12:52.768Z,59.24
2018-06-25T22:15:29.193Z,59.85
2018-06-25T22:18:07.522Z,60.52
2018-06-25T22:23:22.504Z,59.91
2018-06-25T22:31:28.928Z,59.74
2018-06-25T22:34:08.990Z,59.65
2018-06-25T22:36:47.538Z,59.33
2018-06-25T22:39:20.189Z,60.04
2018-06-25T22:41:53.353Z,60.54
2018-06-25T22:44:30.037Z,61.20
2018-06-25T22:47:05.404Z,60.05
2018-06-25T22:49:44.000Z,59.83
2018-06-25T22:52:23.555Z,59.50
2018-06-25T22:55:02.375Z,60.99
2018-06-25T22:57:39.876Z,61.33
2018-06-25T23:00:18.862Z,60.74
2018-06-25T23:03:02.474Z,60.11
2018-06-25T23:08:28.285Z,59.61
2018-06-25T23:11:08.204Z,60.23
2018-06-25T23:13:52.065Z,59.95
2018-06-25T23:16:33.300Z,60.05
2018-06-25T23:19:20.592Z,59.65
2018-06-25T23:22:05.343Z,60.91
2018-06-25T23:24:45.943Z,62.39
2018-06-25T23:27:29.874Z,61.31
2018-06-25T23:36:06.250Z,60.89
2018-06-25T23:38:50.796Z,60.25
2018-06-25T23:41:26.152Z,60.17
2018-06-25T23:44:02.237Z,60.91
2018-06-25T23:46:35.978Z,60.83
2018-06-25T23:49:08.874Z,59.78
2018-06-25T23:51:48.058Z,58.41
2018-06-25T23:54:24.326Z,56.77
2018-06-25T23:57:02.607Z,55.98
2018-06-25T23:59:34.918Z,55.85
